sensor_id;sensor_type;location;lat;lon;timestamp;P1;durP1;ratioP1;P2;durP2;ratioP2
49153;SDS011;49455;52.252;9.124;2024-02-15T08:48:30;15.18;;;7.00;;
49153;SDS011;49455;52.252;9.124;2024-02-15T08:53:31;13.15;;;6.63;;
49153;SDS011;49455;52.252;9.124;2024-02-15T08:58:32;10.85;;;6.28;;
49153;SDS011;49455;52.252;9.124;2024-02-15T09:03:32;12.48;;;6.38;;
49153;SDS011;49455;52.252;9.124;2024-02-15T09:08:33;9.77;;;5.50;;
49153;SDS011;49455;52.252;9.124;2024-02-15T09:13:33;11.63;;;5.40;;
49153;SDS011;49455;52.252;9.124;2024-02-15T09:18:34;11.70;;;5.65;;
49153;SDS011;49455;52.252;9.124;2024-02-15T09:23:34;10.75;;;5.05;;
49153;SDS011;49455;52.252;9.124;2024-02-15T09:28:35;8.50;;;4.05;;
49153;SDS011;49455;52.252;9.124;2024-02-15T09:33:36;9.52;;;4.57;;
49153;SDS011;49455;52.252;9.124;2024-02-15T09:38:36;9.75;;;4.28;;
49153;SDS011;49455;52.252;9.124;2024-02-15T09:43:37;9.65;;;4.30;;
49153;SDS011;49455;52.252;9.124;2024-02-15T09:48:38;9.80;;;4.43;;
49153;SDS011;49455;52.252;9.124;2024-02-15T09:53:40;10.10;;;4.28;;
49153;SDS011;49455;52.252;9.124;2024-02-15T09:58:41;11.75;;;4.70;;
49153;SDS011;49455;52.252;9.124;2024-02-15T10:03:43;9.80;;;4.70;;
49153;SDS011;49455;52.252;9.124;2024-02-15T10:08:44;8.82;;;4.72;;
49153;SDS011;49455;52.252;9.124;2024-02-15T10:13:44;13.00;;;4.50;;
49153;SDS011;49455;52.252;9.124;2024-02-15T10:18:45;9.55;;;4.35;;
49153;SDS011;49455;52.252;9.124;2024-02-15T10:23:46;9.05;;;4.22;;
49153;SDS011;49455;52.252;9.124;2024-02-15T10:28:46;7.18;;;3.85;;
49153;SDS011;49455;52.252;9.124;2024-02-15T10:33:46;7.90;;;3.83;;
49153;SDS011;49455;52.252;9.124;2024-02-15T10:38:47;8.15;;;3.60;;
49153;SDS011;49455;52.252;9.124;2024-02-15T10:43:47;8.82;;;4.00;;
49153;SDS011;49455;52.252;9.124;2024-02-15T10:48:51;9.57;;;4.72;;
49153;SDS011;49455;52.252;9.124;2024-02-15T10:53:57;8.23;;;3.97;;
49153;SDS011;49455;52.252;9.124;2024-02-15T10:59:16;7.88;;;3.75;;
49153;SDS011;49455;52.252;9.124;2024-02-15T11:04:17;9.65;;;4.05;;
49153;SDS011;49455;52.252;9.124;2024-02-15T11:09:20;9.27;;;3.83;;
49153;SDS011;49455;52.252;9.124;2024-02-15T11:24:32;7.95;;;3.70;;
49153;SDS011;49455;52.252;9.124;2024-02-15T11:29:49;6.70;;;3.67;;
49153;SDS011;49455;52.252;9.124;2024-02-15T11:34:50;5.88;;;2.97;;
49153;SDS011;49455;52.252;9.124;2024-02-15T11:39:58;7.28;;;2.78;;
49153;SDS011;49455;52.252;9.124;2024-02-15T11:45:02;5.65;;;2.80;;
49153;SDS011;49455;52.252;9.124;2024-02-15T11:50:09;5.75;;;2.85;;
49153;SDS011;49455;52.252;9.124;2024-02-15T11:55:10;5.38;;;2.70;;
49153;SDS011;49455;52.252;9.124;2024-02-15T12:00:13;6.43;;;2.88;;
49153;SDS011;49455;52.252;9.124;2024-02-15T12:05:19;6.32;;;2.75;;
49153;SDS011;49455;52.252;9.124;2024-02-15T12:10:23;7.75;;;2.88;;
49153;SDS011;49455;52.252;9.124;2024-02-15T12:15:23;5.25;;;2.90;;
49153;SDS011;49455;52.252;9.124;2024-02-15T12:20:24;6.40;;;2.70;;
49153;SDS011;49455;52.252;9.124;2024-02-15T12:25:27;6.55;;;3.20;;
49153;SDS011;49455;52.252;9.124;2024-02-15T12:30:32;6.82;;;2.60;;
49153;SDS011;49455;52.252;9.124;2024-02-15T12:35:35;6.22;;;3.00;;
49153;SDS011;49455;52.252;9.124;2024-02-15T12:40:36;9.75;;;3.20;;
49153;SDS011;49455;52.252;9.124;2024-02-15T12:45:38;6.72;;;3.10;;
49153;SDS011;49455;52.252;9.124;2024-02-15T12:50:40;5.13;;;3.00;;
49153;SDS011;49455;52.252;9.124;2024-02-15T12:55:41;7.65;;;3.05;;
49153;SDS011;49455;52.252;9.124;2024-02-15T13:00:41;8.00;;;3.13;;
49153;SDS011;49455;52.252;9.124;2024-02-15T13:05:42;5.72;;;2.50;;
49153;SDS011;49455;52.252;9.124;2024-02-15T13:10:42;6.97;;;2.60;;
49153;SDS011;49455;52.252;9.124;2024-02-15T13:15:43;6.50;;;2.90;;
49153;SDS011;49455;52.252;9.124;2024-02-15T13:20:43;6.40;;;2.60;;
49153;SDS011;49455;52.252;9.124;2024-02-15T13:25:44;5.22;;;2.63;;
49153;SDS011;49455;52.252;9.124;2024-02-15T13:30:44;5.78;;;2.42;;
49153;SDS011;49455;52.252;9.124;2024-02-15T13:35:44;6.50;;;2.55;;
49153;SDS011;49455;52.252;9.124;2024-02-15T13:40:45;5.00;;;2.25;;
49153;SDS011;49455;52.252;9.124;2024-02-15T13:45:45;7.45;;;2.65;;
49153;SDS011;49455;52.252;9.124;2024-02-15T13:50:46;5.03;;;2.30;;
49153;SDS011;49455;52.252;9.124;2024-02-15T13:55:46;5.10;;;2.33;;
49153;SDS011;49455;52.252;9.124;2024-02-15T14:00:47;6.25;;;2.28;;
49153;SDS011;49455;52.252;9.124;2024-02-15T14:05:48;4.47;;;1.90;;
49153;SDS011;49455;52.252;9.124;2024-02-15T14:10:48;4.93;;;1.95;;
49153;SDS011;49455;52.252;9.124;2024-02-15T14:15:49;5.50;;;1.83;;
49153;SDS011;49455;52.252;9.124;2024-02-15T14:20:49;6.25;;;2.08;;
49153;SDS011;49455;52.252;9.124;2024-02-15T14:25:50;7.95;;;1.90;;
49153;SDS011;49455;52.252;9.124;2024-02-15T14:30:51;6.10;;;2.90;;
49153;SDS011;49455;52.252;9.124;2024-02-15T14:35:51;6.28;;;1.95;;
49153;SDS011;49455;52.252;9.124;2024-02-15T14:40:52;5.82;;;1.90;;
49153;SDS011;49455;52.252;9.124;2024-02-15T14:45:55;6.07;;;2.28;;
49153;SDS011;49455;52.252;9.124;2024-02-15T14:50:59;6.05;;;2.35;;
49153;SDS011;49455;52.252;9.124;2024-02-15T14:55:59;7.50;;;3.53;;
49153;SDS011;49455;52.252;9.124;2024-02-15T15:01:00;7.03;;;2.92;;
49153;SDS011;49455;52.252;9.124;2024-02-15T15:06:00;6.47;;;2.35;;
49153;SDS011;49455;52.252;9.124;2024-02-15T15:11:01;4.78;;;2.50;;
49153;SDS011;49455;52.252;9.124;2024-02-15T15:16:01;7.43;;;2.20;;
49153;SDS011;49455;52.252;9.124;2024-02-15T15:21:02;6.05;;;2.33;;
49153;SDS011;49455;52.252;9.124;2024-02-15T15:26:03;10.23;;;2.60;;
49153;SDS011;49455;52.252;9.124;2024-02-15T15:31:04;6.93;;;2.20;;
49153;SDS011;49455;52.252;9.124;2024-02-15T15:36:04;5.60;;;2.03;;
49153;SDS011;49455;52.252;9.124;2024-02-15T15:41:06;5.32;;;2.50;;
49153;SDS011;49455;52.252;9.124;2024-02-15T15:46:12;8.00;;;2.58;;
49153;SDS011;49455;52.252;9.124;2024-02-15T15:51:15;7.28;;;2.83;;
49153;SDS011;49455;52.252;9.124;2024-02-15T15:56:16;5.95;;;2.70;;
49153;SDS011;49455;52.252;9.124;2024-02-15T16:01:16;8.35;;;2.85;;
49153;SDS011;49455;52.252;9.124;2024-02-15T16:06:16;6.80;;;3.35;;
49153;SDS011;49455;52.252;9.124;2024-02-15T16:11:17;6.13;;;3.30;;
49153;SDS011;49455;52.252;9.124;2024-02-15T16:16:18;6.18;;;3.72;;
49153;SDS011;49455;52.252;9.124;2024-02-15T16:21:18;7.97;;;3.92;;
49153;SDS011;49455;52.252;9.124;2024-02-15T16:26:19;7.93;;;3.90;;
49153;SDS011;49455;52.252;9.124;2024-02-15T16:31:19;9.68;;;4.20;;
49153;SDS011;49455;52.252;9.124;2024-02-15T16:36:20;6.20;;;3.95;;
49153;SDS011;49455;52.252;9.124;2024-02-15T16:41:20;7.95;;;4.25;;
49153;SDS011;49455;52.252;9.124;2024-02-15T16:46:21;6.63;;;4.05;;
49153;SDS011;49455;52.252;9.124;2024-02-15T16:51:24;6.75;;;4.30;;
49153;SDS011;49455;52.252;9.124;2024-02-15T16:56:24;11.75;;;4.60;;
49153;SDS011;49455;52.252;9.124;2024-02-15T17:01:25;9.25;;;4.85;;
49153;SDS011;49455;52.252;9.124;2024-02-15T17:06:26;10.90;;;5.65;;
49153;SDS011;49455;52.252;9.124;2024-02-15T17:11:27;10.15;;;5.00;;
49153;SDS011;49455;52.252;9.124;2024-02-15T17:16:27;9.55;;;5.57;;
49153;SDS011;49455;52.252;9.124;2024-02-15T17:21:28;9.45;;;4.82;;
49153;SDS011;49455;52.252;9.124;2024-02-15T17:26:28;9.38;;;4.80;;
49153;SDS011;49455;52.252;9.124;2024-02-15T17:31:28;7.07;;;4.75;;
49153;SDS011;49455;52.252;9.124;2024-02-15T17:36:29;9.85;;;5.25;;
49153;SDS011;49455;52.252;9.124;2024-02-15T17:41:29;9.80;;;4.90;;
49153;SDS011;49455;52.252;9.124;2024-02-15T17:46:30;7.97;;;4.90;;
49153;SDS011;49455;52.252;9.124;2024-02-15T17:51:34;8.93;;;4.95;;
49153;SDS011;49455;52.252;9.124;2024-02-15T17:56:35;7.80;;;4.80;;
49153;SDS011;49455;52.252;9.124;2024-02-15T18:01:38;9.05;;;4.82;;
49153;SDS011;49455;52.252;9.124;2024-02-15T18:06:39;10.90;;;5.03;;
49153;SDS011;49455;52.252;9.124;2024-02-15T18:11:39;8.15;;;4.78;;
49153;SDS011;49455;52.252;9.124;2024-02-15T18:16:40;9.75;;;5.25;;
